Frankford, Delaware
Current Conditions -  °F | °C
As of 4:54 AM on Tuesday 27 Jan 2015 (Local Time) from KGED Reporting Station
Overcast Overcast  
Wind Chill: 17°   Ceiling: 1900
Heat Index: 28°   Visibility: 10mi
Dew Point: 21°   Wind: 15mph
Humidity: 75%   Direction: 350°N
Pressure: 29.67"   Gusts: 20mph
Location:  38.52°N, 75.23°W
Report Text: KGED 270954Z AUTO 35013G17KT 10SM OVC019 M02/M06 A2967 RMK AO2 SLP049 T10221061
Loading
Personal Weather Stations






























Interactive Weather Map New forecast layout! Learn more

10-Day Weather Forecast

Advertisements
Track Severe Weather on mobile